Time;durP1;ratioP1;P1;durP2;ratioP2;P2;SDS_P1;SDS_P2;PMS_P1;PMS_P2;Temp;Humidity;BMP_temperature;BMP_pressure;BME280_temperature;BME280_humidity;BME280_pressure;Samples;Min_cycle;Max_cycle;Signal;HPM_P1;HPM_P2
2021/12/31 00:02:13;;;;;;;69.18;46.47;;;;;;;2.64;100.00;91354.53;5031013;28;20071;-73
2021/12/31 00:04:39;;;;;;;65.63;40.88;;;;;;;2.58;100.00;91347.66;5046253;28;20033;-73
2021/12/31 00:07:04;;;;;;;61.78;39.55;;;;;;;2.59;100.00;91354.50;5030866;28;20040;-73
2021/12/31 00:09:30;;;;;;;78.72;48.38;;;;;;;2.52;100.00;91344.19;5030859;28;20064;-73
2021/12/31 00:11:55;;;;;;;83.22;51.55;;;;;;;2.50;100.00;91343.63;5032423;28;20099;-73
2021/12/31 00:14:22;;;;;;;86.47;49.58;;;;;;;2.58;100.00;91343.19;5034786;28;20132;-73
2021/12/31 00:16:49;;;;;;;86.57;50.58;;;;;;;2.59;100.00;91344.78;5034675;28;20384;-73
2021/12/31 00:19:15;;;;;;;79.88;47.20;;;;;;;2.55;100.00;91351.56;5034566;28;20029;-73
2021/12/31 00:21:44;;;;;;;64.15;39.33;;;;;;;2.40;100.00;91335.69;5034688;28;20067;-73
2021/12/31 00:24:10;;;;;;;61.08;37.88;;;;;;;2.32;100.00;91338.75;5034563;28;20068;-73
2021/12/31 00:26:35;;;;;;;61.08;37.08;;;;;;;2.28;100.00;91340.28;5034458;28;20068;-73
2021/12/31 00:29:01;;;;;;;50.22;31.15;;;;;;;2.25;100.00;91348.66;5034468;28;20034;-74
2021/12/31 00:31:27;;;;;;;62.17;35.05;;;;;;;2.21;100.00;91337.88;5034414;28;20036;-73
2021/12/31 00:33:53;;;;;;;55.35;33.67;;;;;;;2.26;100.00;91352.88;5034411;28;20026;-73
2021/12/31 00:36:19;;;;;;;58.30;36.65;;;;;;;2.27;100.00;91339.50;5034380;28;20029;-73
2021/12/31 00:41:13;;;;;;;45.28;27.17;;;;;;;2.10;100.00;91331.72;4993101;28;20057;-70
2021/12/31 00:43:38;;;;;;;40.88;25.00;;;;;;;2.09;100.00;91337.22;4994844;28;20034;-70
2021/12/31 00:46:04;;;;;;;36.88;23.35;;;;;;;1.99;100.00;91337.91;4994779;28;20122;-70
2021/12/31 00:48:30;;;;;;;39.55;24.42;;;;;;;1.89;100.00;91332.53;4994773;28;20026;-71
2021/12/31 00:50:56;;;;;;;40.15;23.90;;;;;;;1.77;100.00;91339.78;4994880;28;20058;-71
2021/12/31 00:53:23;;;;;;;76.25;38.78;;;;;;;1.76;100.00;91338.19;4994722;28;20026;-71
2021/12/31 00:55:48;;;;;;;92.60;45.97;;;;;;;1.72;100.00;91340.47;4994631;28;20401;-70
2021/12/31 00:58:14;;;;;;;108.40;50.33;;;;;;;1.65;100.00;91342.50;4994633;28;20054;-70
2021/12/31 01:00:39;;;;;;;43.08;26.17;;;;;;;1.56;100.00;91330.06;4994421;28;20385;-70
2021/12/31 01:03:05;;;;;;;30.73;19.88;;;;;;;1.49;100.00;91319.78;4994552;28;20109;-70
2021/12/31 01:05:31;;;;;;;22.58;13.02;;;;;;;1.44;100.00;91307.41;4994503;28;20041;-70
2021/12/31 01:07:56;;;;;;;16.58;10.75;;;;;;;1.47;100.00;91303.50;4994361;28;20033;-71
2021/12/31 01:10:25;;;;;;;15.85;10.45;;;;;;;1.49;100.00;91309.28;4994317;28;20026;-71
2021/12/31 01:12:51;;;;;;;20.23;10.50;;;;;;;1.39;100.00;91304.69;4994628;28;20080;-70
2021/12/31 01:15:39;;;;;;;15.82;9.57;;;;;;;1.28;100.00;91304.84;4994296;28;20030;-70
2021/12/31 01:20:37;;;;;;;20.48;11.35;;;;;;;1.09;100.00;91289.38;4994119;28;20427;-70
2021/12/31 01:23:04;;;;;;;17.40;9.73;;;;;;;1.28;100.00;91289.91;4993125;28;20054;-71
2021/12/31 01:25:30;;;;;;;19.58;10.05;;;;;;;1.36;100.00;91286.84;4994077;28;20093;-71
2021/12/31 01:27:55;;;;;;;15.02;7.70;;;;;;;1.43;100.00;91291.91;4994060;28;20026;-70
2021/12/31 01:30:21;;;;;;;21.30;10.27;;;;;;;1.41;100.00;91294.75;4993934;28;20034;-71
2021/12/31 01:32:46;;;;;;;13.80;7.57;;;;;;;1.14;100.00;91275.56;4993986;28;20034;-71
2021/12/31 01:35:15;;;;;;;13.48;8.38;;;;;;;1.07;100.00;91293.28;4993948;28;20038;-71
2021/12/31 01:37:41;;;;;;;16.92;10.05;;;;;;;0.93;100.00;91294.66;4993881;28;20029;-71
2021/12/31 01:40:08;;;;;;;20.08;11.30;;;;;;;0.77;100.00;91307.53;4993568;28;20058;-70
2021/12/31 01:42:36;;;;;;;26.48;14.85;;;;;;;0.65;100.00;91319.16;4993903;28;20026;-70
2021/12/31 01:45:15;;;;;;;25.75;15.65;;;;;;;0.59;100.00;91324.31;4993753;28;20479;-70
2021/12/31 01:50:19;;;;;;;43.03;24.15;;;;;;;0.81;100.00;91347.94;4993524;28;20042;-70
2021/12/31 01:52:44;;;;;;;48.55;25.80;;;;;;;0.86;100.00;91340.16;4993566;28;20511;-70
2021/12/31 01:55:12;;;;;;;48.13;25.98;;;;;;;0.91;100.00;91347.28;4993542;28;20485;-70
2021/12/31 01:57:40;;;;;;;43.65;25.20;;;;;;;1.05;100.00;91353.00;4992248;28;20034;-70
2021/12/31 02:00:07;;;;;;;39.17;23.38;;;;;;;1.13;100.00;91355.22;4993416;28;20030;-70
2021/12/31 02:02:32;;;;;;;41.50;24.00;;;;;;;1.26;100.00;91356.69;4993377;28;20129;-70
2021/12/31 02:04:58;;;;;;;41.85;25.42;;;;;;;1.34;100.00;91357.06;4993345;28;20022;-70
2021/12/31 02:07:23;;;;;;;49.85;27.33;;;;;;;1.54;100.00;91361.78;4993286;28;20050;-70
2021/12/31 02:09:53;;;;;;;46.97;24.48;;;;;;;1.60;100.00;91366.06;4993178;28;20037;-70
2021/12/31 02:12:20;;;;;;;37.45;20.08;;;;;;;1.76;100.00;91378.31;4993224;28;20085;-70
2021/12/31 02:14:46;;;;;;;38.42;22.55;;;;;;;1.66;100.00;91374.78;4993122;28;20034;-70
2021/12/31 02:17:12;;;;;;;38.65;22.23;;;;;;;1.62;100.00;91386.78;4993156;28;20037;-71
2021/12/31 02:19:38;;;;;;;35.10;21.25;;;;;;;1.76;100.00;91383.56;4992975;28;20400;-70
2021/12/31 02:22:04;;;;;;;34.88;22.20;;;;;;;1.91;100.00;91400.53;4993113;28;20037;-71
2021/12/31 02:24:30;;;;;;;37.10;22.67;;;;;;;1.93;100.00;91398.44;4993014;28;20034;-70
2021/12/31 02:26:56;;;;;;;38.55;21.83;;;;;;;1.90;100.00;91397.13;4992819;28;20037;-70
2021/12/31 02:29:25;;;;;;;40.58;25.42;;;;;;;1.96;100.00;91396.13;4992845;28;20034;-70
2021/12/31 02:31:53;;;;;;;44.08;27.25;;;;;;;1.98;100.00;91395.88;4992866;28;20648;-70
2021/12/31 02:34:19;;;;;;;52.95;30.63;;;;;;;1.98;100.00;91388.78;4992977;28;20034;-70
2021/12/31 02:36:46;;;;;;;52.55;30.45;;;;;;;2.09;100.00;91379.22;4992729;28;20026;-71
2021/12/31 02:39:11;;;;;;;50.20;27.85;;;;;;;2.14;100.00;91381.09;4992505;28;20072;-71
2021/12/31 02:41:37;;;;;;;38.85;23.40;;;;;;;2.18;100.00;91380.34;4992719;28;20121;-70
2021/12/31 02:44:03;;;;;;;33.38;19.02;;;;;;;2.29;100.00;91386.50;4992620;28;20037;-70
2021/12/31 02:46:29;;;;;;;35.33;21.33;;;;;;;2.32;100.00;91394.66;4992505;28;20488;-70
2021/12/31 02:48:58;;;;;;;23.98;15.40;;;;;;;2.34;100.00;91403.09;4992480;28;20037;-70
2021/12/31 02:51:26;;;;;;;20.63;14.13;;;;;;;2.21;100.00;91387.75;4992537;28;20026;-70
2021/12/31 02:53:54;;;;;;;18.52;12.30;;;;;;;2.34;100.00;91391.78;5007599;28;20411;-71
2021/12/31 02:56:21;;;;;;;20.20;12.93;;;;;;;2.26;100.00;91395.66;4992320;28;20097;-70
2021/12/31 02:58:47;;;;;;;18.77;11.90;;;;;;;2.18;100.00;91382.19;4991848;28;20046;-70
2021/12/31 03:01:13;;;;;;;15.55;11.05;;;;;;;2.26;100.00;91384.38;4992364;28;20026;-70
2021/12/31 03:03:40;;;;;;;23.23;15.13;;;;;;;2.38;100.00;91388.44;4992357;28;20056;-71
2021/12/31 03:06:09;;;;;;;17.45;11.75;;;;;;;2.31;100.00;91371.28;4992232;28;20041;-71
2021/12/31 03:08:43;;;;;;;16.65;10.90;;;;;;;2.26;100.00;91387.78;4992197;28;20149;-71
2021/12/31 03:11:10;;;;;;;16.20;10.27;;;;;;;2.15;100.00;91393.97;4992163;28;20034;-70
2021/12/31 03:13:38;;;;;;;13.07;9.02;;;;;;;2.06;100.00;91400.72;4990951;28;20053;-70
2021/12/31 03:16:06;;;;;;;14.43;9.65;;;;;;;2.06;100.00;91405.94;4992129;28;20022;-70
2021/12/31 03:18:32;;;;;;;15.00;9.60;;;;;;;2.04;100.00;91402.75;4992038;28;20026;-70
2021/12/31 03:21:04;;;;;;;16.55;10.88;;;;;;;2.06;100.00;91401.50;4992017;28;20030;-70
2021/12/31 03:23:31;;;;;;;17.30;10.80;;;;;;;1.98;100.00;91411.63;4992079;28;20029;-70
2021/12/31 03:25:56;;;;;;;17.02;10.65;;;;;;;1.96;100.00;91413.69;4992071;28;20035;-70
2021/12/31 03:28:22;;;;;;;18.83;11.00;;;;;;;2.06;100.00;91417.25;4991962;28;20085;-71
2021/12/31 03:30:48;;;;;;;18.67;11.05;;;;;;;1.91;100.00;91414.44;4991806;28;20555;-70
2021/12/31 03:33:15;;;;;;;17.20;11.52;;;;;;;1.95;100.00;91420.78;4991889;28;20084;-71
2021/12/31 03:35:41;;;;;;;19.85;12.60;;;;;;;1.91;100.00;91414.44;4991854;28;20082;-70
2021/12/31 03:38:07;;;;;;;20.45;12.18;;;;;;;1.96;100.00;91419.72;4991927;28;20428;-70
2021/12/31 03:40:32;;;;;;;17.98;10.95;;;;;;;1.93;100.00;91416.81;4991631;28;20512;-70
2021/12/31 03:42:58;;;;;;;16.42;10.48;;;;;;;1.87;100.00;91425.63;4991839;28;20942;-71
2021/12/31 03:45:24;;;;;;;19.15;10.77;;;;;;;1.89;100.00;91432.22;4991836;28;20037;-70
2021/12/31 03:47:50;;;;;;;15.50;10.25;;;;;;;1.84;100.00;91434.00;4995096;28;20018;-70
2021/12/31 03:50:16;;;;;;;18.38;10.80;;;;;;;1.88;100.00;91435.88;4995758;28;20117;-71
2021/12/31 03:52:41;;;;;;;14.70;9.98;;;;;;;1.83;100.00;91448.94;4995787;28;20471;-70
2021/12/31 03:55:09;;;;;;;17.08;9.93;;;;;;;1.84;100.00;91437.41;4995786;28;20483;-70
2021/12/31 03:57:35;;;;;;;16.83;9.75;;;;;;;1.84;100.00;91455.78;4995701;28;20477;-71
2021/12/31 04:00:01;;;;;;;16.58;10.38;;;;;;;1.85;100.00;91452.13;4995600;28;20038;-70
2021/12/31 04:02:27;;;;;;;16.90;10.38;;;;;;;1.88;100.00;91451.63;4995668;28;20121;-71
2021/12/31 04:04:52;;;;;;;16.20;10.52;;;;;;;1.90;100.00;91456.66;4995549;28;20117;-70
2021/12/31 04:07:19;;;;;;;17.27;10.60;;;;;;;1.92;100.00;91451.97;4995490;28;20022;-70
2021/12/31 04:09:45;;;;;;;17.38;10.75;;;;;;;1.90;100.00;91457.44;4995408;28;20105;-71
2021/12/31 04:12:10;;;;;;;20.80;12.80;;;;;;;1.95;100.00;91456.72;4995445;28;20449;-70
2021/12/31 04:14:36;;;;;;;17.67;11.60;;;;;;;2.14;100.00;91459.81;4995428;28;20484;-70
2021/12/31 04:17:02;;;;;;;20.08;11.85;;;;;;;2.15;100.00;91464.03;4994087;28;20022;-70
2021/12/31 04:19:27;;;;;;;18.67;12.13;;;;;;;2.20;100.00;91458.84;4995189;28;20042;-70
2021/12/31 04:21:52;;;;;;;19.05;12.32;;;;;;;2.28;100.00;91459.22;4995320;28;20049;-70
2021/12/31 04:24:40;;;;;;;20.83;12.38;;;;;;;2.30;100.00;91470.25;4995296;28;20412;-71
2021/12/31 04:27:06;;;;;;;20.42;12.30;;;;;;;2.24;100.00;91463.38;4994132;28;20528;-71
2021/12/31 04:29:31;;;;;;;18.77;13.38;;;;;;;2.29;100.00;91462.63;4995056;28;20034;-70
2021/12/31 04:31:57;;;;;;;17.15;10.65;;;;;;;2.37;100.00;91467.47;4995103;28;20479;-71
2021/12/31 04:34:22;;;;;;;18.02;11.75;;;;;;;2.37;100.00;91464.84;4995066;28;20022;-71
2021/12/31 04:36:48;;;;;;;18.35;10.65;;;;;;;2.45;100.00;91456.50;4994982;28;20030;-70
2021/12/31 04:39:13;;;;;;;12.68;9.68;;;;;;;2.62;100.00;91454.59;4994696;28;20074;-70
2021/12/31 04:41:39;;;;;;;12.23;8.02;;;;;;;2.62;100.00;91445.91;4994899;28;20030;-71
2021/12/31 04:44:04;;;;;;;30.00;17.08;;;;;;;2.78;100.00;91450.28;4994892;28;20042;-70
2021/12/31 04:46:30;;;;;;;18.88;12.27;;;;;;;2.65;100.00;91456.72;4994805;28;20480;-71
2021/12/31 04:48:55;;;;;;;15.60;10.75;;;;;;;2.52;100.00;91443.97;4994726;28;20480;-71
2021/12/31 04:51:20;;;;;;;12.30;8.38;;;;;;;2.51;100.00;91438.97;4994757;28;20030;-71
2021/12/31 04:53:46;;;;;;;12.95;8.80;;;;;;;2.42;100.00;91441.25;4994701;28;20038;-70
2021/12/31 04:56:11;;;;;;;12.68;8.77;;;;;;;2.40;100.00;91430.22;4994625;28;20023;-70
2021/12/31 04:58:37;;;;;;;14.70;10.50;;;;;;;2.39;100.00;91444.38;4993216;28;20038;-71
2021/12/31 05:01:02;;;;;;;11.50;8.43;;;;;;;2.43;100.00;91437.59;4994539;28;20030;-71
2021/12/31 05:03:28;;;;;;;12.30;7.78;;;;;;;2.48;100.00;91429.75;4994495;28;20061;-71
2021/12/31 05:05:53;;;;;;;12.48;7.97;;;;;;;2.53;100.00;91429.81;4994472;28;20030;-71
2021/12/31 05:08:19;;;;;;;11.10;7.80;;;;;;;2.48;100.00;91418.47;4994263;28;20061;-69
2021/12/31 05:10:45;;;;;;;10.40;7.38;;;;;;;2.40;100.00;91404.75;4994571;28;20037;-70
2021/12/31 05:13:15;;;;;;;12.30;7.88;;;;;;;2.39;100.00;91416.28;4993052;28;20030;-70
2021/12/31 05:15:45;;;;;;;12.48;6.80;;;;;;;2.41;100.00;91423.91;4994292;28;20023;-70
2021/12/31 05:18:11;;;;;;;28.60;19.25;;;;;;;2.41;100.00;91423.91;4994214;28;20476;-71
2021/12/31 05:20:36;;;;;;;22.25;13.70;;;;;;;2.34;100.00;91425.94;4994116;28;20113;-70
2021/12/31 05:23:02;;;;;;;45.58;24.00;;;;;;;2.24;100.00;91428.47;4994156;28;20034;-70
2021/12/31 05:25:28;;;;;;;12.98;9.80;;;;;;;2.16;100.00;91428.88;4994196;28;20045;-70
2021/12/31 05:27:54;;;;;;;11.40;7.90;;;;;;;1.92;100.00;91426.50;4994077;28;20034;-70
2021/12/31 05:30:21;;;;;;;11.43;8.23;;;;;;;1.90;100.00;91433.84;4993792;28;20030;-70
2021/12/31 05:32:47;;;;;;;15.25;10.40;;;;;;;1.82;100.00;91434.25;4994238;28;20038;-70
2021/12/31 05:35:13;;;;;;;18.55;13.85;;;;;;;1.86;100.00;91447.66;4993989;28;20037;-70
2021/12/31 05:37:38;;;;;;;12.48;7.80;;;;;;;1.94;100.00;91455.91;4993818;28;20027;-70
2021/12/31 05:40:04;;;;;;;11.25;7.93;;;;;;;1.89;100.00;91455.84;4993533;28;20050;-70
2021/12/31 05:42:30;;;;;;;11.25;7.43;;;;;;;1.95;100.00;91457.50;4993805;28;20157;-70
2021/12/31 05:44:55;;;;;;;12.63;7.97;;;;;;;2.03;100.00;91461.53;4993722;28;20510;-71
2021/12/31 05:47:21;;;;;;;21.08;14.23;;;;;;;2.15;100.00;91453.53;4993606;28;20117;-70
2021/12/31 05:49:46;;;;;;;30.92;19.63;;;;;;;2.19;100.00;91459.88;4993650;28;20117;-70
2021/12/31 05:52:12;;;;;;;23.48;16.02;;;;;;;2.21;100.00;91469.13;4993620;28;20026;-71
2021/12/31 05:54:37;;;;;;;21.50;14.93;;;;;;;2.08;100.00;91467.66;4993596;28;20038;-71
2021/12/31 05:57:03;;;;;;;19.60;13.35;;;;;;;2.12;100.00;91456.66;4993496;28;20049;-71
2021/12/31 05:59:29;;;;;;;18.20;11.95;;;;;;;2.35;100.00;91472.94;4991946;28;20578;-70
2021/12/31 06:01:54;;;;;;;27.58;21.05;;;;;;;2.37;100.00;91470.09;4993441;28;20081;-70
2021/12/31 06:04:20;;;;;;;22.95;15.93;;;;;;;2.48;100.00;91486.72;4993382;28;20409;-71
2021/12/31 06:06:45;;;;;;;15.10;11.50;;;;;;;2.56;100.00;91479.22;4993275;28;20101;-70
2021/12/31 06:09:13;;;;;;;14.93;10.73;;;;;;;2.66;100.00;91475.88;4992842;28;20447;-70
2021/12/31 06:11:40;;;;;;;24.70;16.52;;;;;;;2.57;100.00;91475.56;4993262;28;20562;-71
2021/12/31 06:14:07;;;;;;;21.80;14.90;;;;;;;2.56;100.00;91473.97;4993239;28;20105;-70
2021/12/31 06:16:41;;;;;;;17.10;10.93;;;;;;;2.44;100.00;91470.69;4993187;28;20050;-71
2021/12/31 06:19:07;;;;;;;25.23;16.10;;;;;;;2.39;100.00;91475.88;4993221;28;20045;-70
2021/12/31 06:21:38;;;;;;;19.33;13.38;;;;;;;2.38;100.00;91476.94;4992643;28;20105;-70
2021/12/31 06:24:04;;;;;;;16.00;11.93;;;;;;;2.37;100.00;91480.59;4992705;28;20042;-71
2021/12/31 06:26:31;;;;;;;16.73;10.20;;;;;;;2.25;100.00;91487.78;4992703;28;20023;-71
2021/12/31 06:28:56;;;;;;;16.40;10.88;;;;;;;2.35;100.00;91483.44;4992635;28;20026;-71
2021/12/31 06:31:22;;;;;;;79.60;35.60;;;;;;;2.27;100.00;91489.13;4992743;28;20456;-71
2021/12/31 06:33:48;;;;;;;57.80;28.30;;;;;;;2.07;100.00;91494.13;4992634;28;20034;-71
2021/12/31 06:36:14;;;;;;;58.25;26.05;;;;;;;1.96;100.00;91498.44;4992691;28;20022;-70
2021/12/31 06:38:39;;;;;;;32.45;17.33;;;;;;;2.00;100.00;91496.91;4992515;28;20034;-71
2021/12/31 06:41:05;;;;;;;35.33;19.52;;;;;;;2.02;100.00;91499.28;4992442;28;20046;-71
2021/12/31 06:43:30;;;;;;;27.88;15.98;;;;;;;2.09;100.00;91495.47;4992468;28;20022;-71
2021/12/31 06:45:56;;;;;;;31.55;18.58;;;;;;;2.14;100.00;91517.56;4992525;28;20045;-71
2021/12/31 06:48:21;;;;;;;22.58;15.02;;;;;;;2.30;100.00;91517.50;4992347;28;20053;-71
2021/12/31 06:50:47;;;;;;;22.13;15.50;;;;;;;2.44;100.00;91512.69;4992448;28;20081;-70
2021/12/31 06:53:12;;;;;;;23.52;16.08;;;;;;;2.65;100.00;91509.25;4992489;28;20041;-70
2021/12/31 06:55:38;;;;;;;166.52;89.90;;;;;;;2.82;100.00;91508.38;4992436;28;20030;-71
2021/12/31 06:58:03;;;;;;;22.83;15.15;;;;;;;2.86;100.00;91512.09;4992342;28;20018;-72
2021/12/31 07:00:29;;;;;;;22.30;13.23;;;;;;;2.90;100.00;91505.31;4992381;28;20508;-69
2021/12/31 07:03:10;;;;;;;23.27;15.45;;;;;;;2.81;100.00;91497.06;4990979;28;20026;-71
2021/12/31 07:05:36;;;;;;;22.73;15.45;;;;;;;3.05;100.00;91497.56;4988629;28;20030;-71
2021/12/31 07:08:03;;;;;;;14.95;10.20;;;;;;;3.52;100.00;91494.28;4991978;28;20037;-71
2021/12/31 07:10:29;;;;;;;17.80;11.73;;;;;;;3.60;100.00;91491.19;4991612;28;20022;-71
2021/12/31 07:13:05;;;;;;;17.85;11.60;;;;;;;3.97;100.00;91498.28;4991030;28;20026;-71
2021/12/31 07:15:31;;;;;;;11.52;9.10;;;;;;;4.18;100.00;91492.88;4990079;28;20052;-70
2021/12/31 07:17:56;;;;;;;13.95;10.10;;;;;;;4.53;100.00;91485.38;4991330;28;20045;-70
2021/12/31 07:20:22;;;;;;;12.95;9.23;;;;;;;4.91;100.00;91495.53;4991205;28;20107;-71
2021/12/31 07:22:49;;;;;;;16.25;11.93;;;;;;;5.55;100.00;91497.72;4991442;28;20385;-71
2021/12/31 07:25:15;;;;;;;9.63;7.03;;;;;;;6.68;100.00;91493.84;4991974;28;20030;-71
2021/12/31 07:27:40;;;;;;;8.50;6.97;;;;;;;8.77;88.89;91494.88;4991867;28;20034;-71
2021/12/31 07:30:08;;;;;;;11.25;8.15;;;;;;;10.19;76.35;91506.16;4991943;28;20030;-71
2021/12/31 07:32:37;;;;;;;8.45;7.22;;;;;;;10.54;69.50;91514.63;4991875;28;20481;-70
2021/12/31 07:35:04;;;;;;;63.10;40.28;;;;;;;10.08;70.45;91518.03;4992504;28;20457;-68
2021/12/31 07:37:29;;;;;;;27.30;19.73;;;;;;;9.33;73.05;91518.88;4991784;28;20459;-70
2021/12/31 07:40:00;;;;;;;17.73;11.70;;;;;;;8.57;76.17;91514.47;4991528;28;20177;-71
2021/12/31 07:42:26;;;;;;;13.80;9.15;;;;;;;8.04;81.08;91517.06;4991694;28;20023;-71
2021/12/31 07:44:51;;;;;;;11.30;8.77;;;;;;;7.77;84.18;91525.50;4991879;28;20056;-71
2021/12/31 07:47:17;;;;;;;264.67;156.50;;;;;;;7.65;90.29;91528.50;4998571;28;20042;-70
2021/12/31 07:49:43;;;;;;;62.33;39.53;;;;;;;8.35;86.59;91528.19;4979768;28;20037;-71
2021/12/31 07:52:09;;;;;;;20.27;13.65;;;;;;;8.98;79.60;91526.19;4981991;28;20027;-71
2021/12/31 07:54:34;;;;;;;12.30;10.05;;;;;;;8.93;78.30;91534.22;4979754;28;20129;-70
2021/12/31 07:57:00;;;;;;;14.32;10.55;;;;;;;9.18;75.50;91541.09;4972234;28;20027;-70
2021/12/31 07:59:25;;;;;;;21.02;13.98;;;;;;;8.77;77.03;91542.63;4972316;28;20038;-70
2021/12/31 08:01:51;;;;;;;24.15;15.45;;;;;;;9.25;75.92;91538.09;4972161;28;20058;-70
2021/12/31 08:04:17;;;;;;;26.77;17.90;;;;;;;9.28;74.87;91526.91;4984733;28;20049;-73
2021/12/31 08:06:42;;;;;;;19.30;13.20;;;;;;;9.73;72.91;91530.78;4991258;28;20026;-72
2021/12/31 08:09:08;;;;;;;19.70;12.48;;;;;;;9.98;71.19;91531.50;4991171;28;20100;-72
2021/12/31 08:11:33;;;;;;;12.77;9.68;;;;;;;10.47;69.08;91525.66;4990957;28;20496;-72
2021/12/31 08:13:59;;;;;;;8.90;7.45;;;;;;;10.64;68.51;91530.41;4991270;28;20542;-71
2021/12/31 08:16:24;;;;;;;10.70;7.80;;;;;;;9.77;69.65;91513.19;4991249;28;20030;-71
2021/12/31 08:18:50;;;;;;;16.08;10.30;;;;;;;10.50;69.04;91531.19;4991135;28;20084;-71
2021/12/31 08:21:15;;;;;;;11.38;8.05;;;;;;;10.20;69.57;91529.00;4991264;28;20555;-70
2021/12/31 08:23:41;;;;;;;13.02;10.00;;;;;;;12.16;64.56;91519.28;4991119;28;20031;-70
2021/12/31 08:26:07;;;;;;;12.30;9.25;;;;;;;11.56;65.16;91519.56;4990790;28;20035;-69
2021/12/31 08:28:32;;;;;;;18.95;13.25;;;;;;;12.92;61.68;91521.91;4990850;28;20110;-69
2021/12/31 08:30:58;;;;;;;15.50;10.65;;;;;;;13.10;59.80;91518.22;4990760;28;20066;-69
2021/12/31 08:33:26;;;;;;;6.10;5.15;;;;;;;12.13;60.98;91529.75;4993524;28;20076;-71
2021/12/31 08:35:52;;;;;;;8.80;6.20;;;;;;;11.80;62.37;91521.19;4994530;28;20057;-69
2021/12/31 08:38:17;;;;;;;5.85;4.88;;;;;;;11.12;64.35;91527.41;4994584;28;20548;-70
2021/12/31 08:40:43;;;;;;;9.57;6.97;;;;;;;10.75;66.44;91523.84;4994938;28;20046;-70
2021/12/31 08:43:08;;;;;;;16.50;11.52;;;;;;;11.15;65.48;91524.91;4993146;28;20030;-71
2021/12/31 08:45:34;;;;;;;11.20;8.90;;;;;;;9.76;68.01;91524.91;4994462;28;20084;-70
2021/12/31 08:48:01;;;;;;;16.98;12.75;;;;;;;10.14;70.42;91514.22;4994351;28;20045;-70
2021/12/31 08:50:27;;;;;;;7.22;6.25;;;;;;;9.67;70.59;91517.88;4994607;28;20052;-71
2021/12/31 08:52:53;;;;;;;8.43;6.35;;;;;;;10.69;68.10;91517.03;4994309;28;20473;-70
2021/12/31 08:55:19;;;;;;;8.18;6.97;;;;;;;11.99;64.08;91524.47;4993318;28;20030;-70
2021/12/31 08:57:44;;;;;;;16.45;10.57;;;;;;;11.82;63.50;91505.69;4994239;28;20110;-71
2021/12/31 09:00:10;;;;;;;6.93;5.22;;;;;;;13.54;58.64;91519.16;4994232;28;20035;-71
2021/12/31 09:02:39;;;;;;;4.25;3.80;;;;;;;13.11;57.86;91508.34;4994333;28;20105;-71
2021/12/31 09:05:06;;;;;;;6.05;4.80;;;;;;;13.14;59.02;91507.72;4994204;28;20113;-70
2021/12/31 09:07:32;;;;;;;7.50;6.22;;;;;;;12.16;61.53;91516.63;4994013;28;20547;-70
2021/12/31 09:09:58;;;;;;;3.58;3.20;;;;;;;13.84;57.94;91511.34;4993714;28;20105;-70
2021/12/31 09:12:24;;;;;;;6.50;4.60;;;;;;;14.39;56.09;91511.50;4990763;28;20058;-69
2021/12/31 09:14:49;;;;;;;4.50;3.72;;;;;;;14.81;54.99;91506.38;4981771;28;20073;-69
2021/12/31 09:17:18;;;;;;;3.38;2.83;;;;;;;15.75;52.53;91499.81;4983638;28;20030;-69
2021/12/31 09:19:43;;;;;;;3.78;3.38;;;;;;;15.13;53.36;91505.00;4984033;28;20485;-68
2021/12/31 09:22:09;;;;;;;7.45;5.47;;;;;;;17.52;48.85;91499.09;4982546;28;20078;-70
2021/12/31 09:24:35;;;;;;;11.18;7.80;;;;;;;18.30;46.29;91495.28;4978919;28;20501;-70
2021/12/31 09:27:00;;;;;;;10.70;6.15;;;;;;;17.67;48.74;91497.59;4989037;28;20038;-71
2021/12/31 09:29:26;;;;;;;8.88;5.85;;;;;;;19.19;44.74;91497.72;4985189;28;20034;-70
2021/12/31 09:31:53;;;;;;;104.55;67.85;;;;;;;17.88;46.67;91494.84;4983522;28;20028;-70
2021/12/31 09:34:19;;;;;;;12.80;8.18;;;;;;;18.34;46.91;91495.41;4977002;28;20027;-70
2021/12/31 09:36:45;;;;;;;6.88;5.30;;;;;;;16.75;48.06;91490.03;4985575;28;20412;-70
2021/12/31 09:39:11;;;;;;;6.72;4.55;;;;;;;15.70;51.12;91478.56;4982350;28;20139;-69
2021/12/31 09:41:36;;;;;;;7.05;5.85;;;;;;;18.13;47.58;91485.56;4993380;28;20046;-70
2021/12/31 09:44:02;;;;;;;5.18;4.22;;;;;;;15.72;51.47;91491.66;4982418;28;20508;-71
2021/12/31 09:46:28;;;;;;;9.95;7.13;;;;;;;16.06;51.02;91480.66;4989905;28;20042;-71
2021/12/31 09:48:53;;;;;;;8.98;6.78;;;;;;;15.79;51.74;91483.88;4988921;28;20113;-71
2021/12/31 09:51:21;;;;;;;5.35;4.45;;;;;;;16.72;50.25;91478.03;4990782;28;20030;-69
2021/12/31 09:53:46;;;;;;;5.28;4.30;;;;;;;18.13;47.50;91479.41;4989343;28;20030;-69
2021/12/31 09:56:13;;;;;;;6.97;4.53;;;;;;;18.61;46.68;91486.53;4992529;28;20508;-69
2021/12/31 09:58:40;;;;;;;4.03;3.40;;;;;;;17.88;47.13;91467.91;4992766;28;20121;-69
2021/12/31 10:01:08;;;;;;;4.60;3.85;;;;;;;14.80;52.38;91475.34;4993035;28;20024;-69
2021/12/31 10:03:35;;;;;;;5.45;3.97;;;;;;;14.54;55.24;91475.44;5008060;28;20038;-69
2021/12/31 10:06:12;;;;;;;4.68;3.90;;;;;;;15.00;54.07;91455.91;4992841;28;20084;-69
2021/12/31 10:08:42;;;;;;;4.53;3.38;;;;;;;12.73;58.38;91450.06;4992655;28;20476;-69
2021/12/31 10:11:10;;;;;;;3.92;3.53;;;;;;;14.06;56.85;91460.38;4992852;28;20057;-69
2021/12/31 10:13:39;;;;;;;4.93;3.65;;;;;;;15.80;52.66;91459.41;4993153;28;20181;-69
2021/12/31 10:16:06;;;;;;;6.38;4.63;;;;;;;15.99;52.13;91453.56;4992882;28;20129;-69
2021/12/31 10:18:37;;;;;;;5.15;4.30;;;;;;;15.70;52.83;91451.72;4992810;28;20186;-69
2021/12/31 10:21:04;;;;;;;5.90;4.80;;;;;;;17.53;49.77;91451.47;4993126;28;20030;-69
2021/12/31 10:23:36;;;;;;;6.63;4.35;;;;;;;16.07;51.17;91459.97;4992881;28;20046;-70
2021/12/31 10:26:13;;;;;;;6.47;5.47;;;;;;;15.06;53.98;91445.78;4992697;28;20566;-69
2021/12/31 10:28:56;;;;;;;3.15;2.80;;;;;;;15.98;50.76;91456.59;4992536;28;20037;-69
2021/12/31 10:31:21;;;;;;;2.83;2.33;;;;;;;15.69;52.84;91452.06;4992733;28;20081;-69
2021/12/31 10:33:48;;;;;;;2.50;2.30;;;;;;;15.62;53.54;91441.06;4992633;28;20500;-69
2021/12/31 10:36:34;;;;;;;4.60;3.70;;;;;;;15.13;53.38;91438.78;4992624;28;20053;-69
2021/12/31 10:39:14;;;;;;;3.08;2.88;;;;;;;14.88;54.51;91429.00;4991730;28;20026;-69
2021/12/31 10:41:39;;;;;;;3.45;2.72;;;;;;;14.55;54.59;91434.94;4992624;28;20378;-70
2021/12/31 10:44:05;;;;;;;4.15;3.75;;;;;;;15.50;53.10;91425.66;4992497;28;20096;-69
2021/12/31 10:46:30;;;;;;;3.28;2.97;;;;;;;14.48;54.42;91436.53;4992360;28;20029;-69
2021/12/31 10:49:00;;;;;;;13.38;9.75;;;;;;;14.98;54.35;91428.63;4992349;28;20113;-68
2021/12/31 10:51:42;;;;;;;5.28;4.65;;;;;;;15.57;53.17;91431.28;4992392;28;20893;-68
2021/12/31 10:54:37;;;;;;;4.93;3.05;;;;;;;15.18;54.06;91427.91;4991895;28;20034;-69
2021/12/31 10:57:03;;;;;;;3.45;3.13;;;;;;;15.67;52.43;91430.16;4992159;28;20053;-69
2021/12/31 10:59:33;;;;;;;4.68;4.07;;;;;;;15.46;53.73;91427.41;4992163;28;20041;-68
2021/12/31 11:01:59;;;;;;;4.20;3.70;;;;;;;15.55;53.99;91423.56;4992099;28;20062;-69
2021/12/31 11:04:28;;;;;;;3.95;3.13;;;;;;;16.16;51.66;91413.16;4992051;28;20527;-70
2021/12/31 11:06:55;;;;;;;5.28;4.13;;;;;;;17.14;49.04;91402.59;4991667;28;20038;-70
2021/12/31 11:09:24;;;;;;;4.72;4.22;;;;;;;18.08;47.33;91407.72;4991515;28;20802;-70
2021/12/31 11:11:52;;;;;;;4.72;3.58;;;;;;;17.75;47.63;91405.25;4991864;28;20034;-69
2021/12/31 11:14:18;;;;;;;22.67;20.83;;;;;;;17.08;49.01;91403.97;4991357;28;20105;-71
2021/12/31 11:16:43;;;;;;;3.05;2.75;;;;;;;15.33;50.47;91398.97;4991461;28;20106;-69
2021/12/31 11:19:10;;;;;;;3.30;2.90;;;;;;;15.73;50.22;91410.84;4991518;28;20027;-69
2021/12/31 11:21:37;;;;;;;3.33;3.03;;;;;;;15.98;51.13;91405.59;4991740;28;20078;-68
2021/12/31 11:24:30;;;;;;;12.07;6.35;;;;;;;16.08;51.60;91402.50;4989730;28;20062;-69
2021/12/31 11:27:19;;;;;;;3.50;2.92;;;;;;;16.61;49.53;91400.88;4985183;28;20027;-70
2021/12/31 11:29:45;;;;;;;5.05;3.80;;;;;;;16.73;49.04;91403.59;4977181;28;20030;-68